KGCY/GCY METAR and TAF weather

Enter ICAO airport designator
Station Type Date Time Source
KGCY METAR 2019/04/19 10:55 UTC NOAA

KGCY 191055Z AUTO 02004KT 2 1/2SM BR BKN003 BKN025 OVC046 15/15 A2962 RMK A01 P0024


Station Type Date Time Source
KGCY Decoded METAR 2019/04/19 10:55 UTC NOAA

Station name not available
Apr 19, 2019 - 06:55 AM EDT / 2019.04.19 1055 UTC
Wind: from the NNE (020 degrees) at 5 MPH (4 KT):0
Visibility: 2 1/2 mile(s):0
Sky conditions: overcast
Weather: mist
Precipitation last hour: 0.24 inches
Temperature: 59 F (15 C)
Dew Point: 59 F (15 C)
Relative Humidity: 100%
Pressure (altimeter): 29.62 in. Hg (1003 hPa)
ob: KGCY 191055Z AUTO 02004KT 2 1/2SM BR BKN003 BKN025 OVC046 15/15 A2962 RMK A01 P0024
cycle: 11

Station Type Date Time Source
KGCY TAF UTC NOAA

Error!

Example: see airport list